»·PEaware :: UPS561 KOAK-KONT

UPS561 :: KOAK-KONT

FLIGHT INFORMATION

Flight Status: Arrived
Operator:
United Parcel Service
More flights by this operator :: More flights under this callsign
Pilot: David J. (24489)
Aircraft: BOEING 747-400 (WINGLETS)
(B744)
More flights by this aircraft type
Origin: KOAK Metro Oakland Intl
United States
Destination: KONT Ontario Intl
United States
More flights between these airports :: More routes between these airports
Route: +CNDEL4 LOSHN EHF ZIGGY7
File this flight plan on PilotEdge
Remarks: RMK / SIMBRIEF
Altitude:
(Current/Filed)
37,000ft
Speed:
(Current/Filed)
491kts
Departed: 09-Sep-20 10:55 AM
Arrived: 09-Sep-20 11:57 AM
Distance/Time
Traveled:
315nm/1:02
Distance/Time
To Go:
Arrived

Flight Plot

Page will automatically refresh every two minutes.

Flight plan parsing failed; only flown route is shown


Map Options




Map Legend


Flown Route
Filed Route
Departure Airport
Arrival Airport
Navaid (VOR, NDB)
Fix

Horizontal Profiles

Position Reports

Time Latitude Longitude Heading Altitude Ground
Speed
09-Sep-20 10:32 37.716902 -122.220499 316 19ft 0kts
09-Sep-20 10:33 37.716902 -122.220499 316 19ft 0kts
09-Sep-20 10:34 37.716902 -122.220499 316 19ft 0kts
09-Sep-20 10:35 37.716902 -122.220499 316 19ft 0kts
09-Sep-20 10:36 37.716902 -122.220499 316 19ft 0kts
09-Sep-20 10:37 37.716902 -122.220499 316 19ft 0kts
09-Sep-20 10:38 37.716902 -122.220499 316 19ft 0kts
09-Sep-20 10:39 37.716902 -122.220499 316 19ft 0kts
09-Sep-20 10:40 37.716902 -122.220499 316 19ft 0kts
09-Sep-20 10:41 37.716902 -122.220499 316 19ft 0kts
09-Sep-20 10:42 37.716902 -122.220499 316 19ft 0kts
09-Sep-20 10:43 37.716902 -122.220499 316 19ft 0kts
09-Sep-20 10:44 37.716902 -122.220499 316 19ft 0kts
09-Sep-20 10:45 37.716902 -122.220499 316 19ft 0kts
09-Sep-20 10:46 37.716902 -122.220499 316 19ft 0kts
09-Sep-20 10:47 37.716902 -122.220499 316 19ft 0kts
09-Sep-20 10:48 37.716902 -122.220499 316 19ft 0kts
09-Sep-20 10:49 37.714892 -122.219619 204 19ft 17kts
09-Sep-20 10:50 37.710884 -122.224286 157 19ft 4kts
09-Sep-20 10:51 37.706520 -122.217815 128 19ft 23kts
09-Sep-20 10:53 37.702776 -122.213652 171 19ft 8kts
09-Sep-20 10:54 37.701922 -122.214968 306 19ft 4kts
09-Sep-20 10:55 37.719581 -122.241821 310 1145ft 188kts
09-Sep-20 10:56 37.761937 -122.305012 311 1960ft 255kts
09-Sep-20 10:57 37.793922 -122.383232 260 5388ft 273kts
09-Sep-20 10:58 37.732463 -122.433494 188 9074ft 294kts
09-Sep-20 10:59 37.644482 -122.444780 187 11139ft 365kts
09-Sep-20 11:00 37.532909 -122.465070 181 13336ft 425kts
09-Sep-20 11:01 37.431877 -122.391691 129 16453ft 443kts
09-Sep-20 11:02 37.354677 -122.267038 127 19335ft 462kts
09-Sep-20 11:03 37.272499 -122.139109 127 22020ft 478kts
09-Sep-20 11:04 37.187286 -122.006718 127 24452ft 495kts
09-Sep-20 11:05 37.098719 -121.870726 127 26669ft 512kts
09-Sep-20 11:06 37.007029 -121.730659 127 28512ft 526kts
09-Sep-20 11:07 36.914532 -121.589963 127 30910ft 521kts
09-Sep-20 11:08 36.822883 -121.451138 127 32859ft 518kts
09-Sep-20 11:08 36.746568 -121.335976 127 34266ft 516kts
09-Sep-20 11:10 36.646307 -121.184740 127 35924ft 514kts
09-Sep-20 11:11 36.554895 -121.048248 128 36951ft 514kts
09-Sep-20 11:11 36.478363 -120.934238 127 36954ft 514kts
09-Sep-20 11:12 36.387024 -120.797845 128 36952ft 514kts
09-Sep-20 11:14 36.280358 -120.639307 128 36940ft 514kts
09-Sep-20 11:14 36.204330 -120.525653 128 36938ft 514kts
09-Sep-20 11:15 36.112435 -120.389495 128 36928ft 514kts
09-Sep-20 11:16 36.021064 -120.254308 128 36930ft 510kts
09-Sep-20 11:17 35.929341 -120.119849 128 36930ft 511kts
09-Sep-20 11:18 35.841254 -119.983175 119 36930ft 509kts
09-Sep-20 11:19 35.777977 -119.827203 113 36923ft 507kts
09-Sep-20 11:20 35.715893 -119.671368 114 36915ft 508kts
09-Sep-20 11:21 35.658480 -119.527283 114 36911ft 508kts
09-Sep-20 11:22 35.595978 -119.371135 114 36909ft 509kts
09-Sep-20 11:23 35.541714 -119.237534 114 36906ft 509kts
09-Sep-20 11:24 35.469684 -119.089033 132 36906ft 512kts
09-Sep-20 11:25 35.359314 -118.977391 142 36905ft 515kts
09-Sep-20 11:26 35.245957 -118.870109 141 36959ft 515kts
09-Sep-20 11:27 35.132700 -118.763179 141 36243ft 511kts
09-Sep-20 11:28 35.033216 -118.648485 127 33376ft 482kts
09-Sep-20 11:29 34.949775 -118.524748 128 30231ft 463kts
09-Sep-20 11:30 34.868083 -118.406535 128 27068ft 445kts
09-Sep-20 11:31 34.791009 -118.293921 127 24538ft 416kts
09-Sep-20 11:32 34.718886 -118.189742 127 23314ft 409kts
09-Sep-20 11:33 34.645178 -118.083677 127 21899ft 412kts
09-Sep-20 11:34 34.586345 -117.966901 114 20030ft 400kts
09-Sep-20 11:35 34.533636 -117.849227 115 18021ft 393kts
09-Sep-20 11:36 34.480894 -117.734595 116 16078ft 384kts
09-Sep-20 11:37 34.431908 -117.628362 115 15255ft 346kts
09-Sep-20 11:38 34.386233 -117.529373 115 14194ft 322kts
09-Sep-20 11:39 34.340500 -117.440127 128 13920ft 318kts
09-Sep-20 11:40 34.279435 -117.364649 131 12043ft 309kts
09-Sep-20 11:41 34.220582 -117.291940 131 9856ft 295kts
09-Sep-20 11:42 34.167284 -117.225381 131 8568ft 234kts
09-Sep-20 11:43 34.125608 -117.174686 131 8028ft 214kts
09-Sep-20 11:44 34.083004 -117.123040 131 8033ft 216kts
09-Sep-20 11:45 34.040019 -117.071272 131 8052ft 217kts
09-Sep-20 11:46 33.988205 -117.052251 218 7437ft 218kts
09-Sep-20 11:47 33.987295 -117.115384 290 6170ft 196kts
09-Sep-20 11:48 34.008043 -117.175456 301 5563ft 188kts
09-Sep-20 11:49 34.031664 -117.232140 293 4386ft 192kts
09-Sep-20 11:50 34.048891 -117.291993 291 4315ft 187kts
09-Sep-20 11:51 34.055667 -117.354055 270 4312ft 191kts
09-Sep-20 11:52 34.055061 -117.414689 271 3628ft 166kts
09-Sep-20 11:53 34.054813 -117.469428 269 2749ft 162kts
09-Sep-20 11:54 34.054931 -117.521229 270 1920ft 147kts
09-Sep-20 11:55 34.054902 -117.571136 269 1162ft 150kts
09-Sep-20 11:56 34.054967 -117.606581 272 957ft 37kts
09-Sep-20 11:57 34.053953 -117.611943 109 957ft 3kts
09-Sep-20 11:58 34.053861 -117.608596 89 957ft 17kts
09-Sep-20 11:59 34.053886 -117.600271 90 957ft 22kts
09-Sep-20 12:00 34.053880 -117.593050 90 957ft 31kts
09-Sep-20 12:01 34.053924 -117.584799 89 957ft 20kts
09-Sep-20 12:02 34.052547 -117.582083 118 957ft 16kts
09-Sep-20 12:03 34.051156 -117.580527 256 957ft 6kts
09-Sep-20 12:04 34.051113 -117.581321 270 957ft 0kts
09-Sep-20 12:05 34.051113 -117.581321 270 957ft 0kts
09-Sep-20 12:06 34.051113 -117.581321 270 957ft 0kts
09-Sep-20 12:07 34.051113 -117.581321 270 957ft 0kts
09-Sep-20 12:08 34.051113 -117.581321 270 957ft 0kts
09-Sep-20 12:09 34.051113 -117.581321 270 957ft 0kts
09-Sep-20 12:10 34.051113 -117.581321 270 957ft 0kts

Navigation Log

Ident Type
Flight plan parsing failed, navigation log unavailable